Terminal Aerodrome Forecast
Issued by NWS

Home | Current Version | Previous Version | Graphics & Text | Print | Product List | Glossary On
Versions: 1 2 3 4 5 6 7 8 9 10 11 12 13 14 15 16 17 18 19
000
FTUS43 KICT 012335
TAFRSL
TAF
KRSL 012335Z 0200/0224 18015G22KT P6SM SCT090
      TEMPO 0202/0206 BKN090
     FM021500 18019G27KT P6SM SCT090=

USA.gov is the U.S. government's official web portal to all federal, state and local government web resources and services.